sensor_id;sensor_type;location;lat;lon;timestamp;temperature;humidity
30825;DHT22;17550;45.486;12.222;2023-04-15T00:01:04;9.80;99.90
30825;DHT22;17550;45.486;12.222;2023-04-15T00:03:30;9.80;99.90
30825;DHT22;17550;45.486;12.222;2023-04-15T00:05:57;9.90;99.90
30825;DHT22;17550;45.486;12.222;2023-04-15T00:08:22;9.80;99.90
30825;DHT22;17550;45.486;12.222;2023-04-15T00:10:48;9.80;99.90
30825;DHT22;17550;45.486;12.222;2023-04-15T00:13:15;9.70;99.90
30825;DHT22;17550;45.486;12.222;2023-04-15T00:15:41;9.70;99.90
30825;DHT22;17550;45.486;12.222;2023-04-15T00:18:07;9.60;99.90
30825;DHT22;17550;45.486;12.222;2023-04-15T00:20:33;9.50;99.90
30825;DHT22;17550;45.486;12.222;2023-04-15T00:23:00;9.30;99.90
30825;DHT22;17550;45.486;12.222;2023-04-15T00:25:27;9.20;99.90
30825;DHT22;17550;45.486;12.222;2023-04-15T00:27:53;9.10;99.90
30825;DHT22;17550;45.486;12.222;2023-04-15T00:30:19;9.00;99.90
30825;DHT22;17550;45.486;12.222;2023-04-15T00:32:45;9.00;99.90
30825;DHT22;17550;45.486;12.222;2023-04-15T00:35:11;8.80;99.90
30825;DHT22;17550;45.486;12.222;2023-04-15T00:37:37;8.60;99.90
30825;DHT22;17550;45.486;12.222;2023-04-15T00:40:03;8.50;99.90
30825;DHT22;17550;45.486;12.222;2023-04-15T00:42:31;8.50;99.90
30825;DHT22;17550;45.486;12.222;2023-04-15T00:44:56;8.40;99.90
30825;DHT22;17550;45.486;12.222;2023-04-15T00:47:22;8.40;99.90
30825;DHT22;17550;45.486;12.222;2023-04-15T00:49:48;8.40;99.90
30825;DHT22;17550;45.486;12.222;2023-04-15T00:52:14;8.40;99.90
30825;DHT22;17550;45.486;12.222;2023-04-15T00:54:39;8.40;99.90
30825;DHT22;17550;45.486;12.222;2023-04-15T00:57:05;8.40;99.90
30825;DHT22;17550;45.486;12.222;2023-04-15T00:59:33;8.40;99.90
30825;DHT22;17550;45.486;12.222;2023-04-15T01:01:59;8.40;99.90
30825;DHT22;17550;45.486;12.222;2023-04-15T01:04:24;8.40;99.90
30825;DHT22;17550;45.486;12.222;2023-04-15T01:06:50;8.40;99.90
30825;DHT22;17550;45.486;12.222;2023-04-15T01:09:16;8.40;99.90
30825;DHT22;17550;45.486;12.222;2023-04-15T01:11:43;8.30;99.90
30825;DHT22;17550;45.486;12.222;2023-04-15T01:14:09;8.40;99.90
30825;DHT22;17550;45.486;12.222;2023-04-15T01:16:36;8.30;99.90
30825;DHT22;17550;45.486;12.222;2023-04-15T01:19:06;8.30;99.90
30825;DHT22;17550;45.486;12.222;2023-04-15T01:21:36;8.30;99.90
30825;DHT22;17550;45.486;12.222;2023-04-15T01:24:08;8.20;99.90
30825;DHT22;17550;45.486;12.222;2023-04-15T01:26:39;8.20;99.90
30825;DHT22;17550;45.486;12.222;2023-04-15T01:29:05;8.30;99.90
30825;DHT22;17550;45.486;12.222;2023-04-15T01:31:31;8.30;99.90
30825;DHT22;17550;45.486;12.222;2023-04-15T01:33:58;8.30;99.90
30825;DHT22;17550;45.486;12.222;2023-04-15T01:36:23;8.30;99.90
30825;DHT22;17550;45.486;12.222;2023-04-15T01:38:50;8.30;99.90
30825;DHT22;17550;45.486;12.222;2023-04-15T01:41:16;8.30;99.90
30825;DHT22;17550;45.486;12.222;2023-04-15T01:43:46;8.30;99.90
30825;DHT22;17550;45.486;12.222;2023-04-15T01:46:11;8.40;99.90
30825;DHT22;17550;45.486;12.222;2023-04-15T01:48:37;8.40;99.90
30825;DHT22;17550;45.486;12.222;2023-04-15T01:51:03;8.40;99.90
30825;DHT22;17550;45.486;12.222;2023-04-15T01:53:28;8.40;99.90
30825;DHT22;17550;45.486;12.222;2023-04-15T01:55:54;8.40;99.90
30825;DHT22;17550;45.486;12.222;2023-04-15T01:58:20;8.40;99.90
30825;DHT22;17550;45.486;12.222;2023-04-15T02:00:46;8.50;99.90
30825;DHT22;17550;45.486;12.222;2023-04-15T02:03:12;8.50;99.90
30825;DHT22;17550;45.486;12.222;2023-04-15T02:05:38;8.40;99.90
30825;DHT22;17550;45.486;12.222;2023-04-15T02:08:04;8.50;99.90
30825;DHT22;17550;45.486;12.222;2023-04-15T02:10:30;8.50;99.90
30825;DHT22;17550;45.486;12.222;2023-04-15T02:12:56;8.40;99.90
30825;DHT22;17550;45.486;12.222;2023-04-15T02:15:21;8.40;99.90
30825;DHT22;17550;45.486;12.222;2023-04-15T02:17:47;8.40;99.90
30825;DHT22;17550;45.486;12.222;2023-04-15T02:20:18;8.40;99.90
30825;DHT22;17550;45.486;12.222;2023-04-15T02:22:44;8.30;99.90
30825;DHT22;17550;45.486;12.222;2023-04-15T02:25:10;8.30;99.90
30825;DHT22;17550;45.486;12.222;2023-04-15T02:27:36;8.20;99.90
30825;DHT22;17550;45.486;12.222;2023-04-15T02:30:02;8.20;99.90
30825;DHT22;17550;45.486;12.222;2023-04-15T02:32:28;8.20;99.90
30825;DHT22;17550;45.486;12.222;2023-04-15T02:34:53;8.20;99.90
30825;DHT22;17550;45.486;12.222;2023-04-15T02:37:19;8.10;99.90
30825;DHT22;17550;45.486;12.222;2023-04-15T02:39:46;8.10;99.90
30825;DHT22;17550;45.486;12.222;2023-04-15T02:42:11;8.10;99.90
30825;DHT22;17550;45.486;12.222;2023-04-15T02:44:38;8.10;99.90
30825;DHT22;17550;45.486;12.222;2023-04-15T02:47:03;8.10;99.90
30825;DHT22;17550;45.486;12.222;2023-04-15T02:49:31;8.00;99.90
30825;DHT22;17550;45.486;12.222;2023-04-15T02:51:57;8.00;99.90
30825;DHT22;17550;45.486;12.222;2023-04-15T02:54:25;8.00;99.90
30825;DHT22;17550;45.486;12.222;2023-04-15T02:56:53;8.00;99.90
30825;DHT22;17550;45.486;12.222;2023-04-15T02:59:20;7.90;99.90
30825;DHT22;17550;45.486;12.222;2023-04-15T03:01:46;7.90;99.90
30825;DHT22;17550;45.486;12.222;2023-04-15T03:04:12;7.80;99.90
30825;DHT22;17550;45.486;12.222;2023-04-15T03:06:39;7.80;99.90
30825;DHT22;17550;45.486;12.222;2023-04-15T03:09:05;7.80;99.90
30825;DHT22;17550;45.486;12.222;2023-04-15T03:11:31;7.70;99.90
30825;DHT22;17550;45.486;12.222;2023-04-15T03:13:57;7.70;99.90
30825;DHT22;17550;45.486;12.222;2023-04-15T03:16:23;7.70;99.90
30825;DHT22;17550;45.486;12.222;2023-04-15T03:18:50;7.70;99.90
30825;DHT22;17550;45.486;12.222;2023-04-15T03:21:19;7.70;99.90
30825;DHT22;17550;45.486;12.222;2023-04-15T03:23:44;7.70;99.90
30825;DHT22;17550;45.486;12.222;2023-04-15T03:26:29;7.60;99.90
30825;DHT22;17550;45.486;12.222;2023-04-15T03:28:55;7.60;99.90
30825;DHT22;17550;45.486;12.222;2023-04-15T03:31:21;7.60;99.90
30825;DHT22;17550;45.486;12.222;2023-04-15T03:33:47;7.60;99.90
30825;DHT22;17550;45.486;12.222;2023-04-15T03:36:13;7.50;99.90
30825;DHT22;17550;45.486;12.222;2023-04-15T03:38:39;7.60;99.90
30825;DHT22;17550;45.486;12.222;2023-04-15T03:41:05;7.50;99.90
30825;DHT22;17550;45.486;12.222;2023-04-15T03:43:31;7.60;99.90
30825;DHT22;17550;45.486;12.222;2023-04-15T03:45:57;7.60;99.90
30825;DHT22;17550;45.486;12.222;2023-04-15T03:48:22;7.60;99.90
30825;DHT22;17550;45.486;12.222;2023-04-15T03:50:48;7.60;99.90
30825;DHT22;17550;45.486;12.222;2023-04-15T03:53:14;7.60;99.90
30825;DHT22;17550;45.486;12.222;2023-04-15T03:55:40;7.60;99.90
30825;DHT22;17550;45.486;12.222;2023-04-15T03:58:06;7.60;99.90
30825;DHT22;17550;45.486;12.222;2023-04-15T04:00:32;7.50;99.90
30825;DHT22;17550;45.486;12.222;2023-04-15T04:02:57;7.50;99.90
30825;DHT22;17550;45.486;12.222;2023-04-15T04:05:23;7.50;99.90
30825;DHT22;17550;45.486;12.222;2023-04-15T04:07:49;7.40;99.90
30825;DHT22;17550;45.486;12.222;2023-04-15T04:10:15;7.50;99.90
30825;DHT22;17550;45.486;12.222;2023-04-15T04:12:40;7.50;99.90
30825;DHT22;17550;45.486;12.222;2023-04-15T04:15:06;7.50;99.90
30825;DHT22;17550;45.486;12.222;2023-04-15T04:17:33;7.50;99.90
30825;DHT22;17550;45.486;12.222;2023-04-15T04:19:58;7.50;99.90
30825;DHT22;17550;45.486;12.222;2023-04-15T04:22:24;7.50;99.90
30825;DHT22;17550;45.486;12.222;2023-04-15T04:24:50;7.50;99.90
30825;DHT22;17550;45.486;12.222;2023-04-15T04:27:16;7.50;99.90
30825;DHT22;17550;45.486;12.222;2023-04-15T04:29:42;7.50;99.90
30825;DHT22;17550;45.486;12.222;2023-04-15T04:32:08;7.50;99.90
30825;DHT22;17550;45.486;12.222;2023-04-15T04:34:33;7.50;99.90
30825;DHT22;17550;45.486;12.222;2023-04-15T04:36:59;7.50;99.90
30825;DHT22;17550;45.486;12.222;2023-04-15T04:39:25;7.50;99.90
30825;DHT22;17550;45.486;12.222;2023-04-15T04:41:50;7.50;99.90
30825;DHT22;17550;45.486;12.222;2023-04-15T04:44:19;7.50;99.90
30825;DHT22;17550;45.486;12.222;2023-04-15T04:46:45;7.50;99.90
30825;DHT22;17550;45.486;12.222;2023-04-15T04:49:10;7.50;99.90
30825;DHT22;17550;45.486;12.222;2023-04-15T04:51:36;7.60;99.90
30825;DHT22;17550;45.486;12.222;2023-04-15T04:54:03;7.60;99.90
30825;DHT22;17550;45.486;12.222;2023-04-15T04:56:28;7.70;99.90
30825;DHT22;17550;45.486;12.222;2023-04-15T04:58:54;7.70;99.90
30825;DHT22;17550;45.486;12.222;2023-04-15T05:01:20;7.80;99.90
30825;DHT22;17550;45.486;12.222;2023-04-15T05:03:47;8.10;99.90
30825;DHT22;17550;45.486;12.222;2023-04-15T05:06:13;8.70;99.90
30825;DHT22;17550;45.486;12.222;2023-04-15T05:08:38;9.20;99.90
30825;DHT22;17550;45.486;12.222;2023-04-15T05:11:05;9.60;99.90
30825;DHT22;17550;45.486;12.222;2023-04-15T05:13:31;9.90;99.90
30825;DHT22;17550;45.486;12.222;2023-04-15T05:15:57;10.10;99.90
30825;DHT22;17550;45.486;12.222;2023-04-15T05:18:23;10.00;99.90
30825;DHT22;17550;45.486;12.222;2023-04-15T05:20:48;9.70;99.90
30825;DHT22;17550;45.486;12.222;2023-04-15T05:23:15;9.50;99.90
30825;DHT22;17550;45.486;12.222;2023-04-15T05:25:41;9.20;99.90
30825;DHT22;17550;45.486;12.222;2023-04-15T05:28:06;9.00;99.90
30825;DHT22;17550;45.486;12.222;2023-04-15T05:30:32;8.80;99.90
30825;DHT22;17550;45.486;12.222;2023-04-15T05:32:58;8.60;99.90
30825;DHT22;17550;45.486;12.222;2023-04-15T05:35:23;8.50;99.90
30825;DHT22;17550;45.486;12.222;2023-04-15T05:37:49;8.50;99.90
30825;DHT22;17550;45.486;12.222;2023-04-15T05:40:15;8.50;99.90
30825;DHT22;17550;45.486;12.222;2023-04-15T05:42:41;8.50;99.90
30825;DHT22;17550;45.486;12.222;2023-04-15T05:45:07;8.60;99.90
30825;DHT22;17550;45.486;12.222;2023-04-15T05:47:35;8.70;99.90
30825;DHT22;17550;45.486;12.222;2023-04-15T05:50:02;8.80;99.90
30825;DHT22;17550;45.486;12.222;2023-04-15T05:52:28;8.80;99.90
30825;DHT22;17550;45.486;12.222;2023-04-15T05:54:53;8.90;99.90
30825;DHT22;17550;45.486;12.222;2023-04-15T05:57:19;9.00;99.90
30825;DHT22;17550;45.486;12.222;2023-04-15T05:59:45;9.10;99.90
30825;DHT22;17550;45.486;12.222;2023-04-15T06:02:11;9.10;99.90
30825;DHT22;17550;45.486;12.222;2023-04-15T06:04:37;9.10;99.90
30825;DHT22;17550;45.486;12.222;2023-04-15T06:07:03;9.20;99.90
30825;DHT22;17550;45.486;12.222;2023-04-15T06:09:32;9.30;99.90
30825;DHT22;17550;45.486;12.222;2023-04-15T06:11:58;9.30;99.90
30825;DHT22;17550;45.486;12.222;2023-04-15T06:14:23;9.20;99.90
30825;DHT22;17550;45.486;12.222;2023-04-15T06:16:49;9.30;99.90
30825;DHT22;17550;45.486;12.222;2023-04-15T06:19:15;9.40;99.90
30825;DHT22;17550;45.486;12.222;2023-04-15T06:21:41;9.50;99.90
30825;DHT22;17550;45.486;12.222;2023-04-15T06:24:07;9.60;99.90
30825;DHT22;17550;45.486;12.222;2023-04-15T06:26:32;9.70;99.90
30825;DHT22;17550;45.486;12.222;2023-04-15T06:28:58;9.70;99.90
30825;DHT22;17550;45.486;12.222;2023-04-15T06:31:24;9.80;99.90
30825;DHT22;17550;45.486;12.222;2023-04-15T06:33:50;10.00;99.90
30825;DHT22;17550;45.486;12.222;2023-04-15T06:36:15;10.10;99.90
30825;DHT22;17550;45.486;12.222;2023-04-15T06:38:43;10.20;99.90
30825;DHT22;17550;45.486;12.222;2023-04-15T06:41:08;10.40;99.90
30825;DHT22;17550;45.486;12.222;2023-04-15T06:43:34;10.60;99.90
30825;DHT22;17550;45.486;12.222;2023-04-15T06:46:00;10.70;99.90
30825;DHT22;17550;45.486;12.222;2023-04-15T06:48:26;10.90;99.90
30825;DHT22;17550;45.486;12.222;2023-04-15T06:50:52;11.00;99.90
30825;DHT22;17550;45.486;12.222;2023-04-15T06:53:18;11.20;99.90
30825;DHT22;17550;45.486;12.222;2023-04-15T06:55:44;11.40;99.90
30825;DHT22;17550;45.486;12.222;2023-04-15T06:58:09;11.50;99.90
30825;DHT22;17550;45.486;12.222;2023-04-15T07:00:35;11.60;99.90
30825;DHT22;17550;45.486;12.222;2023-04-15T07:03:03;11.80;99.90
30825;DHT22;17550;45.486;12.222;2023-04-15T07:05:29;11.70;99.90
30825;DHT22;17550;45.486;12.222;2023-04-15T07:07:56;11.80;99.90
30825;DHT22;17550;45.486;12.222;2023-04-15T07:10:22;12.00;99.90
30825;DHT22;17550;45.486;12.222;2023-04-15T07:12:48;12.20;99.90
30825;DHT22;17550;45.486;12.222;2023-04-15T07:15:15;12.20;99.90
30825;DHT22;17550;45.486;12.222;2023-04-15T07:17:41;12.10;99.90
30825;DHT22;17550;45.486;12.222;2023-04-15T07:20:08;12.10;99.90
30825;DHT22;17550;45.486;12.222;2023-04-15T07:22:33;12.10;99.90
30825;DHT22;17550;45.486;12.222;2023-04-15T07:24:59;12.10;99.90
30825;DHT22;17550;45.486;12.222;2023-04-15T07:27:25;12.10;99.90
30825;DHT22;17550;45.486;12.222;2023-04-15T07:29:51;12.10;99.90
30825;DHT22;17550;45.486;12.222;2023-04-15T07:32:18;12.20;99.90
30825;DHT22;17550;45.486;12.222;2023-04-15T07:34:44;12.20;99.90
30825;DHT22;17550;45.486;12.222;2023-04-15T07:37:09;12.20;99.90
30825;DHT22;17550;45.486;12.222;2023-04-15T07:39:35;12.30;99.90
30825;DHT22;17550;45.486;12.222;2023-04-15T07:42:01;12.30;99.90
30825;DHT22;17550;45.486;12.222;2023-04-15T07:44:28;12.40;99.90
30825;DHT22;17550;45.486;12.222;2023-04-15T07:46:55;12.50;99.90
30825;DHT22;17550;45.486;12.222;2023-04-15T07:49:21;12.60;99.90
30825;DHT22;17550;45.486;12.222;2023-04-15T07:51:47;12.90;99.90
30825;DHT22;17550;45.486;12.222;2023-04-15T07:54:14;12.90;99.90
30825;DHT22;17550;45.486;12.222;2023-04-15T07:56:40;12.80;99.90
30825;DHT22;17550;45.486;12.222;2023-04-15T07:59:06;12.80;99.90
30825;DHT22;17550;45.486;12.222;2023-04-15T08:01:31;12.80;99.90
30825;DHT22;17550;45.486;12.222;2023-04-15T08:03:58;12.80;99.90
30825;DHT22;17550;45.486;12.222;2023-04-15T08:06:24;12.80;99.90
30825;DHT22;17550;45.486;12.222;2023-04-15T08:08:49;12.90;99.90
30825;DHT22;17550;45.486;12.222;2023-04-15T08:11:15;12.90;99.90
30825;DHT22;17550;45.486;12.222;2023-04-15T08:13:41;12.90;99.90
30825;DHT22;17550;45.486;12.222;2023-04-15T08:16:24;12.80;99.90
30825;DHT22;17550;45.486;12.222;2023-04-15T08:18:54;12.90;99.90
30825;DHT22;17550;45.486;12.222;2023-04-15T08:21:21;13.00;99.90
30825;DHT22;17550;45.486;12.222;2023-04-15T08:23:48;13.00;99.90
30825;DHT22;17550;45.486;12.222;2023-04-15T08:26:14;13.00;99.90
30825;DHT22;17550;45.486;12.222;2023-04-15T08:28:41;13.20;99.90
30825;DHT22;17550;45.486;12.222;2023-04-15T08:31:07;13.30;99.90
30825;DHT22;17550;45.486;12.222;2023-04-15T08:33:33;13.40;99.90
30825;DHT22;17550;45.486;12.222;2023-04-15T08:35:59;13.40;99.90
30825;DHT22;17550;45.486;12.222;2023-04-15T08:38:25;13.50;99.90
30825;DHT22;17550;45.486;12.222;2023-04-15T08:40:50;13.60;99.90
30825;DHT22;17550;45.486;12.222;2023-04-15T08:43:26;13.70;99.90
30825;DHT22;17550;45.486;12.222;2023-04-15T08:45:53;13.70;99.90
30825;DHT22;17550;45.486;12.222;2023-04-15T08:48:19;14.10;99.90
30825;DHT22;17550;45.486;12.222;2023-04-15T08:50:46;14.10;99.90
30825;DHT22;17550;45.486;12.222;2023-04-15T08:53:13;14.10;99.90
30825;DHT22;17550;45.486;12.222;2023-04-15T08:55:44;13.90;99.90
30825;DHT22;17550;45.486;12.222;2023-04-15T08:58:11;14.10;99.90
30825;DHT22;17550;45.486;12.222;2023-04-15T09:00:41;14.20;99.90
30825;DHT22;17550;45.486;12.222;2023-04-15T09:03:07;14.20;99.90
30825;DHT22;17550;45.486;12.222;2023-04-15T09:05:36;14.20;99.90
30825;DHT22;17550;45.486;12.222;2023-04-15T09:08:03;14.50;99.90
30825;DHT22;17550;45.486;12.222;2023-04-15T09:10:29;14.70;99.90
30825;DHT22;17550;45.486;12.222;2023-04-15T09:12:56;14.60;99.90
30825;DHT22;17550;45.486;12.222;2023-04-15T09:15:24;14.50;99.90
30825;DHT22;17550;45.486;12.222;2023-04-15T09:17:51;14.50;99.90
30825;DHT22;17550;45.486;12.222;2023-04-15T09:20:17;14.30;99.90
30825;DHT22;17550;45.486;12.222;2023-04-15T09:22:45;14.40;99.90
30825;DHT22;17550;45.486;12.222;2023-04-15T09:27:51;14.60;99.90
30825;DHT22;17550;45.486;12.222;2023-04-15T09:30:17;14.70;99.90
30825;DHT22;17550;45.486;12.222;2023-04-15T09:35:16;15.20;99.90
30825;DHT22;17550;45.486;12.222;2023-04-15T09:37:42;15.00;99.90
30825;DHT22;17550;45.486;12.222;2023-04-15T09:40:08;14.90;99.90
30825;DHT22;17550;45.486;12.222;2023-04-15T09:42:35;14.70;99.90
30825;DHT22;17550;45.486;12.222;2023-04-15T09:45:11;14.40;99.90
30825;DHT22;17550;45.486;12.222;2023-04-15T09:47:37;14.40;99.90
30825;DHT22;17550;45.486;12.222;2023-04-15T09:50:03;14.60;99.90
30825;DHT22;17550;45.486;12.222;2023-04-15T09:52:29;14.80;99.90
30825;DHT22;17550;45.486;12.222;2023-04-15T09:54:57;15.00;99.90
30825;DHT22;17550;45.486;12.222;2023-04-15T09:57:23;15.10;99.90
30825;DHT22;17550;45.486;12.222;2023-04-15T09:59:50;15.20;99.90
30825;DHT22;17550;45.486;12.222;2023-04-15T10:02:17;15.30;99.90
30825;DHT22;17550;45.486;12.222;2023-04-15T10:04:44;15.40;99.90
30825;DHT22;17550;45.486;12.222;2023-04-15T10:07:13;15.50;99.90
30825;DHT22;17550;45.486;12.222;2023-04-15T10:09:40;15.70;99.90
30825;DHT22;17550;45.486;12.222;2023-04-15T10:12:06;15.70;99.90
30825;DHT22;17550;45.486;12.222;2023-04-15T10:14:33;15.80;99.90
30825;DHT22;17550;45.486;12.222;2023-04-15T10:17:04;15.70;99.90
30825;DHT22;17550;45.486;12.222;2023-04-15T10:19:35;15.70;99.90
30825;DHT22;17550;45.486;12.222;2023-04-15T10:22:02;15.70;99.90
30825;DHT22;17550;45.486;12.222;2023-04-15T10:24:32;15.70;99.90
30825;DHT22;17550;45.486;12.222;2023-04-15T10:26:59;15.70;99.90
30825;DHT22;17550;45.486;12.222;2023-04-15T10:29:25;15.90;99.90
30825;DHT22;17550;45.486;12.222;2023-04-15T10:31:54;16.10;99.90
30825;DHT22;17550;45.486;12.222;2023-04-15T10:34:22;16.10;99.90
30825;DHT22;17550;45.486;12.222;2023-04-15T10:36:48;16.00;99.90
30825;DHT22;17550;45.486;12.222;2023-04-15T10:42:12;16.00;99.90
30825;DHT22;17550;45.486;12.222;2023-04-15T10:44:47;16.20;99.90
30825;DHT22;17550;45.486;12.222;2023-04-15T10:47:15;16.30;99.90
30825;DHT22;17550;45.486;12.222;2023-04-15T10:49:49;16.30;99.90
30825;DHT22;17550;45.486;12.222;2023-04-15T10:52:20;16.60;99.90
30825;DHT22;17550;45.486;12.222;2023-04-15T10:54:47;17.00;99.90
30825;DHT22;17550;45.486;12.222;2023-04-15T10:57:21;17.20;99.90
30825;DHT22;17550;45.486;12.222;2023-04-15T11:00:03;17.30;99.60
30825;DHT22;17550;45.486;12.222;2023-04-15T11:05:08;16.90;99.90
30825;DHT22;17550;45.486;12.222;2023-04-15T11:13:25;16.80;99.90
30825;DHT22;17550;45.486;12.222;2023-04-15T11:15:55;16.80;99.90
30825;DHT22;17550;45.486;12.222;2023-04-15T11:18:24;16.90;99.90
30825;DHT22;17550;45.486;12.222;2023-04-15T11:20:52;17.00;99.90
30825;DHT22;17550;45.486;12.222;2023-04-15T11:26:01;16.80;99.10
30825;DHT22;17550;45.486;12.222;2023-04-15T11:28:30;16.80;99.20
30825;DHT22;17550;45.486;12.222;2023-04-15T11:30:56;16.80;99.30
30825;DHT22;17550;45.486;12.222;2023-04-15T11:33:24;16.90;98.90
30825;DHT22;17550;45.486;12.222;2023-04-15T11:35:52;17.00;97.90
30825;DHT22;17550;45.486;12.222;2023-04-15T11:38:18;17.20;98.50
30825;DHT22;17550;45.486;12.222;2023-04-15T11:40:44;17.30;97.00
30825;DHT22;17550;45.486;12.222;2023-04-15T11:43:12;17.50;97.90
30825;DHT22;17550;45.486;12.222;2023-04-15T11:45:59;17.60;97.50
30825;DHT22;17550;45.486;12.222;2023-04-15T11:48:34;17.80;97.00
30825;DHT22;17550;45.486;12.222;2023-04-15T11:51:06;17.60;97.60
30825;DHT22;17550;45.486;12.222;2023-04-15T11:53:46;17.70;97.10
30825;DHT22;17550;45.486;12.222;2023-04-15T11:56:22;17.30;96.80
30825;DHT22;17550;45.486;12.222;2023-04-15T11:58:55;17.10;96.90
30825;DHT22;17550;45.486;12.222;2023-04-15T12:01:33;17.10;97.60
30825;DHT22;17550;45.486;12.222;2023-04-15T12:03:59;17.20;97.70
30825;DHT22;17550;45.486;12.222;2023-04-15T12:06:31;17.50;97.40
30825;DHT22;17550;45.486;12.222;2023-04-15T12:09:12;17.40;96.00
30825;DHT22;17550;45.486;12.222;2023-04-15T12:11:39;17.60;95.70
30825;DHT22;17550;45.486;12.222;2023-04-15T12:14:19;17.80;96.50
30825;DHT22;17550;45.486;12.222;2023-04-15T12:16:47;17.90;95.80
30825;DHT22;17550;45.486;12.222;2023-04-15T12:19:29;18.00;95.10
30825;DHT22;17550;45.486;12.222;2023-04-15T12:22:16;17.80;96.00
30825;DHT22;17550;45.486;12.222;2023-04-15T12:24:43;17.70;96.10
30825;DHT22;17550;45.486;12.222;2023-04-15T12:27:12;17.60;95.80
30825;DHT22;17550;45.486;12.222;2023-04-15T12:29:40;17.50;96.00
30825;DHT22;17550;45.486;12.222;2023-04-15T12:32:07;17.20;95.90
30825;DHT22;17550;45.486;12.222;2023-04-15T12:34:38;16.90;96.40
30825;DHT22;17550;45.486;12.222;2023-04-15T12:37:06;16.70;96.60
30825;DHT22;17550;45.486;12.222;2023-04-15T12:39:39;16.90;96.90
30825;DHT22;17550;45.486;12.222;2023-04-15T12:42:06;16.90;96.30
30825;DHT22;17550;45.486;12.222;2023-04-15T12:44:32;16.90;96.50
30825;DHT22;17550;45.486;12.222;2023-04-15T12:46:59;16.90;97.10
30825;DHT22;17550;45.486;12.222;2023-04-15T12:49:25;17.10;97.10
30825;DHT22;17550;45.486;12.222;2023-04-15T12:52:01;17.30;97.20
30825;DHT22;17550;45.486;12.222;2023-04-15T12:54:27;17.50;96.30
30825;DHT22;17550;45.486;12.222;2023-04-15T12:56:54;17.60;96.40
30825;DHT22;17550;45.486;12.222;2023-04-15T12:59:20;17.70;96.10
30825;DHT22;17550;45.486;12.222;2023-04-15T13:01:48;17.50;96.20
30825;DHT22;17550;45.486;12.222;2023-04-15T13:04:15;17.30;95.80
30825;DHT22;17550;45.486;12.222;2023-04-15T13:06:41;17.20;95.80
30825;DHT22;17550;45.486;12.222;2023-04-15T13:09:06;17.10;95.80
30825;DHT22;17550;45.486;12.222;2023-04-15T13:11:32;17.20;95.90
30825;DHT22;17550;45.486;12.222;2023-04-15T13:14:03;17.50;94.40
30825;DHT22;17550;45.486;12.222;2023-04-15T13:16:30;17.50;93.60
30825;DHT22;17550;45.486;12.222;2023-04-15T13:18:57;17.60;94.60
30825;DHT22;17550;45.486;12.222;2023-04-15T13:21:23;17.80;94.60
30825;DHT22;17550;45.486;12.222;2023-04-15T13:23:49;17.90;94.30
30825;DHT22;17550;45.486;12.222;2023-04-15T13:26:16;17.90;94.00
30825;DHT22;17550;45.486;12.222;2023-04-15T13:28:42;17.90;93.90
30825;DHT22;17550;45.486;12.222;2023-04-15T13:31:08;17.60;95.00
30825;DHT22;17550;45.486;12.222;2023-04-15T13:33:33;17.50;96.00
30825;DHT22;17550;45.486;12.222;2023-04-15T13:36:00;17.40;95.80
30825;DHT22;17550;45.486;12.222;2023-04-15T13:38:26;17.30;97.10
30825;DHT22;17550;45.486;12.222;2023-04-15T13:40:52;17.10;98.80
30825;DHT22;17550;45.486;12.222;2023-04-15T13:43:17;17.00;99.50
30825;DHT22;17550;45.486;12.222;2023-04-15T13:45:43;16.70;99.90
30825;DHT22;17550;45.486;12.222;2023-04-15T13:48:10;16.70;99.90
30825;DHT22;17550;45.486;12.222;2023-04-15T13:50:35;16.80;99.90
30825;DHT22;17550;45.486;12.222;2023-04-15T13:53:01;17.20;99.60
30825;DHT22;17550;45.486;12.222;2023-04-15T13:55:27;17.40;99.70
30825;DHT22;17550;45.486;12.222;2023-04-15T13:57:53;17.60;99.00
30825;DHT22;17550;45.486;12.222;2023-04-15T14:00:20;17.80;98.10
30825;DHT22;17550;45.486;12.222;2023-04-15T14:02:45;17.80;98.10
30825;DHT22;17550;45.486;12.222;2023-04-15T14:05:11;17.80;97.90
30825;DHT22;17550;45.486;12.222;2023-04-15T14:07:37;17.60;97.10
30825;DHT22;17550;45.486;12.222;2023-04-15T14:10:03;17.50;97.60
30825;DHT22;17550;45.486;12.222;2023-04-15T14:12:29;17.50;97.80
30825;DHT22;17550;45.486;12.222;2023-04-15T14:14:54;17.50;98.20
30825;DHT22;17550;45.486;12.222;2023-04-15T14:17:20;17.50;97.60
30825;DHT22;17550;45.486;12.222;2023-04-15T14:19:46;17.50;97.60
30825;DHT22;17550;45.486;12.222;2023-04-15T14:22:11;17.70;97.50
30825;DHT22;17550;45.486;12.222;2023-04-15T14:24:37;17.50;97.50
30825;DHT22;17550;45.486;12.222;2023-04-15T14:27:03;17.40;97.30
30825;DHT22;17550;45.486;12.222;2023-04-15T14:29:29;17.10;97.80
30825;DHT22;17550;45.486;12.222;2023-04-15T14:31:55;17.00;98.20
30825;DHT22;17550;45.486;12.222;2023-04-15T14:34:23;17.00;98.10
30825;DHT22;17550;45.486;12.222;2023-04-15T14:36:50;17.00;97.60
30825;DHT22;17550;45.486;12.222;2023-04-15T14:39:18;16.90;97.40
30825;DHT22;17550;45.486;12.222;2023-04-15T14:41:44;16.90;97.60
30825;DHT22;17550;45.486;12.222;2023-04-15T14:44:10;16.70;97.90
30825;DHT22;17550;45.486;12.222;2023-04-15T14:46:37;16.60;98.00
30825;DHT22;17550;45.486;12.222;2023-04-15T14:49:03;16.60;98.60
30825;DHT22;17550;45.486;12.222;2023-04-15T14:51:28;16.60;97.80
30825;DHT22;17550;45.486;12.222;2023-04-15T14:53:55;16.60;97.90
30825;DHT22;17550;45.486;12.222;2023-04-15T14:56:21;16.40;97.30
30825;DHT22;17550;45.486;12.222;2023-04-15T14:58:47;16.40;97.60
30825;DHT22;17550;45.486;12.222;2023-04-15T15:01:13;16.60;96.50
30825;DHT22;17550;45.486;12.222;2023-04-15T15:03:39;16.60;95.40
30825;DHT22;17550;45.486;12.222;2023-04-15T15:06:05;16.70;94.40
30825;DHT22;17550;45.486;12.222;2023-04-15T15:08:31;16.70;94.10
30825;DHT22;17550;45.486;12.222;2023-04-15T15:10:57;16.70;94.40
30825;DHT22;17550;45.486;12.222;2023-04-15T15:13:22;16.80;94.40
30825;DHT22;17550;45.486;12.222;2023-04-15T15:15:48;16.50;93.80
30825;DHT22;17550;45.486;12.222;2023-04-15T15:18:15;16.30;94.80
30825;DHT22;17550;45.486;12.222;2023-04-15T15:20:41;16.30;95.20
30825;DHT22;17550;45.486;12.222;2023-04-15T15:23:07;16.20;94.10
30825;DHT22;17550;45.486;12.222;2023-04-15T15:25:32;15.90;93.90
30825;DHT22;17550;45.486;12.222;2023-04-15T15:27:58;15.70;94.80
30825;DHT22;17550;45.486;12.222;2023-04-15T15:30:24;15.70;95.90
30825;DHT22;17550;45.486;12.222;2023-04-15T15:32:50;15.70;95.90
30825;DHT22;17550;45.486;12.222;2023-04-15T15:35:16;15.70;96.10
30825;DHT22;17550;45.486;12.222;2023-04-15T15:37:42;15.70;96.30
30825;DHT22;17550;45.486;12.222;2023-04-15T15:40:08;15.60;96.50